TimeEDT,TemperatureF,Dew PointF,Humidity,Sea Level PressureIn,VisibilityMPH,Wind Direction,Wind SpeedMPH,Gust SpeedMPH,PrecipitationIn,Events,Conditions,WindDirDegrees,DateUTC
12:43 AM,57.2,57.2,100,30.04,1.8,South,3.5,-,N/A,,Clear,180,2013-09-30 04:43:00
12:53 AM,57.9,57.0,97,30.04,2.5,South,3.5,-,N/A,,Clear,170,2013-09-30 04:53:00
1:00 AM,57.2,57.2,100,30.04,4.0,Calm,Calm,-,N/A,,Clear,0,2013-09-30 05:00:00
1:53 AM,59.0,57.9,96,30.04,7.0,Calm,Calm,-,N/A,,Clear,0,2013-09-30 05:53:00
2:14 AM,57.2,57.2,100,30.04,1.2,ESE,3.5,-,N/A,,Clear,120,2013-09-30 06:14:00
2:16 AM,55.4,55.4,100,30.04,0.5,ESE,4.6,-,N/A,Fog,Fog,110,2013-09-30 06:16:00
2:31 AM,57.2,57.2,100,30.04,1.0,ESE,4.6,-,N/A,,Clear,120,2013-09-30 06:31:00
2:35 AM,57.2,57.2,100,30.04,3.0,ESE,3.5,-,N/A,,Clear,120,2013-09-30 06:35:00
2:53 AM,57.0,57.0,100,30.03,4.0,ESE,3.5,-,N/A,,Mostly Cloudy,120,2013-09-30 06:53:00
3:53 AM,57.0,57.0,100,30.02,2.0,SSE,3.5,-,N/A,,Mostly Cloudy,150,2013-09-30 07:53:00
3:57 AM,55.4,55.4,100,30.03,0.8,South,3.5,-,N/A,,Mostly Cloudy,180,2013-09-30 07:57:00
4:05 AM,57.2,57.2,100,30.03,3.0,South,3.5,-,N/A,,Scattered Clouds,180,2013-09-30 08:05:00
4:13 AM,57.2,57.2,100,30.03,1.5,Calm,Calm,-,N/A,,Mostly Cloudy,0,2013-09-30 08:13:00
4:17 AM,55.4,55.4,100,30.03,0.5,Calm,Calm,-,N/A,Fog,Fog,0,2013-09-30 08:17:00
4:38 AM,57.2,55.4,94,30.04,1.0,Calm,Calm,-,N/A,,Overcast,0,2013-09-30 08:38:00
4:41 AM,55.4,55.4,100,30.04,0.5,Calm,Calm,-,N/A,Fog,Fog,0,2013-09-30 08:41:00
4:53 AM,55.9,55.9,100,30.04,0.8,Calm,Calm,-,N/A,,Overcast,0,2013-09-30 08:53:00
5:01 AM,57.2,57.2,100,30.04,2.0,Calm,Calm,-,N/A,,Overcast,0,2013-09-30 09:01:00
5:12 AM,57.2,57.2,100,30.04,2.0,Calm,Calm,-,N/A,,Overcast,0,2013-09-30 09:12:00
5:17 AM,55.4,55.4,100,30.04,1.0,Calm,Calm,-,N/A,,Overcast,0,2013-09-30 09:17:00
5:33 AM,57.2,57.2,100,30.04,2.0,Calm,Calm,-,N/A,,Overcast,0,2013-09-30 09:33:00
5:53 AM,57.0,57.0,100,30.04,2.5,South,3.5,-,N/A,,Overcast,170,2013-09-30 09:53:00
6:00 AM,57.2,57.2,100,30.04,4.0,Calm,Calm,-,N/A,,Overcast,0,2013-09-30 10:00:00
6:53 AM,57.9,57.9,100,30.05,6.0,South,4.6,-,N/A,,Overcast,180,2013-09-30 10:53:00
7:42 AM,57.2,57.2,100,30.06,1.8,West,3.5,-,N/A,,Overcast,280,2013-09-30 11:42:00
7:53 AM,57.9,57.9,100,30.06,1.0,Calm,Calm,-,N/A,,Overcast,0,2013-09-30 11:53:00
8:26 AM,57.2,57.2,100,30.06,2.5,Calm,Calm,-,N/A,,Mostly Cloudy,0,2013-09-30 12:26:00
8:48 AM,59.0,57.2,94,30.07,3.0,Calm,Calm,-,N/A,,Overcast,0,2013-09-30 12:48:00
8:53 AM,59.0,57.9,96,30.07,2.5,Calm,Calm,-,N/A,,Overcast,0,2013-09-30 12:53:00
9:00 AM,60.8,59.0,94,30.07,3.0,Calm,Calm,-,N/A,,Overcast,0,2013-09-30 13:00:00
9:53 AM,61.0,60.1,97,30.07,5.0,SSW,3.5,-,N/A,,Overcast,210,2013-09-30 13:53:00
10:53 AM,66.0,59.0,78,30.06,10.0,Variable,3.5,-,N/A,,Overcast,0,2013-09-30 14:53:00
11:53 AM,68.0,60.1,76,30.05,10.0,Variable,3.5,-,N/A,,Overcast,0,2013-09-30 15:53:00
12:53 PM,66.9,57.9,73,30.05,10.0,WSW,4.6,-,N/A,,Overcast,250,2013-09-30 16:53:00
1:53 PM,66.9,59.0,76,30.04,10.0,South,4.6,-,N/A,,Overcast,180,2013-09-30 17:53:00
2:53 PM,66.9,59.0,76,30.03,10.0,South,5.8,-,0.00,,Overcast,190,2013-09-30 18:53:00
3:14 PM,64.4,57.2,77,30.03,9.0,West,8.1,-,0.00,Rain,Light Rain,260,2013-09-30 19:14:00
3:25 PM,64.4,57.2,77,30.03,10.0,WSW,9.2,-,0.00,,Overcast,250,2013-09-30 19:25:00
3:53 PM,66.0,57.9,75,30.02,10.0,WSW,5.8,-,0.00,,Overcast,240,2013-09-30 19:53:00
4:53 PM,64.9,57.9,78,30.02,10.0,West,5.8,-,N/A,,Overcast,280,2013-09-30 20:53:00
5:53 PM,64.0,57.9,80,30.02,10.0,Calm,Calm,-,N/A,,Overcast,0,2013-09-30 21:53:00
6:53 PM,63.0,60.1,90,30.02,10.0,Calm,Calm,-,N/A,,Overcast,0,2013-09-30 22:53:00
7:53 PM,63.0,57.9,84,30.03,10.0,South,4.6,-,N/A,,Overcast,170,2013-09-30 23:53:00
8:53 PM,62.1,57.9,86,30.05,10.0,SSE,3.5,-,N/A,,Overcast,160,2013-10-01 00:53:00
9:53 PM,62.1,57.9,86,30.04,10.0,South,5.8,-,N/A,,Overcast,170,2013-10-01 01:53:00
10:53 PM,62.1,57.9,86,30.04,10.0,SSE,5.8,-,N/A,,Mostly Cloudy,160,2013-10-01 02:53:00
11:53 PM,61.0,57.9,90,30.04,10.0,South,6.9,-,N/A,,Clear,170,2013-10-01 03:53:00